createdAt,value
2018-04-14T00:01:02.372Z,11.50
2018-04-14T00:03:30.965Z,11.50
2018-04-14T00:05:59.435Z,11.50
2018-04-14T00:08:27.796Z,11.50
2018-04-14T00:10:56.151Z,11.50
2018-04-14T00:13:24.542Z,11.50
2018-04-14T00:15:52.981Z,11.40
2018-04-14T00:18:22.198Z,11.40
2018-04-14T00:20:50.551Z,11.40
2018-04-14T00:23:19.779Z,11.40
2018-04-14T00:25:48.196Z,11.30
2018-04-14T00:28:16.548Z,11.40
2018-04-14T00:30:44.926Z,11.30
2018-04-14T00:33:13.286Z,11.30
2018-04-14T00:35:41.650Z,11.30
2018-04-14T00:38:10.019Z,11.30
2018-04-14T00:40:39.229Z,11.30
2018-04-14T00:43:08.358Z,11.30
2018-04-14T00:45:36.716Z,11.20
2018-04-14T00:48:05.092Z,11.20
2018-04-14T00:50:33.442Z,11.20
2018-04-14T00:53:13.733Z,11.20
2018-04-14T00:55:42.163Z,11.20
2018-04-14T00:58:10.735Z,11.20
2018-04-14T01:00:39.073Z,11.10
2018-04-14T01:03:07.616Z,11.10
2018-04-14T01:05:35.984Z,11.10
2018-04-14T01:08:04.351Z,11.20
2018-04-14T01:10:32.723Z,11.10
2018-04-14T01:13:01.214Z,11.10
2018-04-14T01:15:29.615Z,11.10
2018-04-14T01:17:58.094Z,11.10
2018-04-14T01:20:26.473Z,11.10
2018-04-14T01:22:54.834Z,11.10
2018-04-14T01:25:23.218Z,11.10
2018-04-14T01:27:51.564Z,11.10
2018-04-14T01:30:19.978Z,11.10
2018-04-14T01:32:48.524Z,11.10
2018-04-14T01:35:17.653Z,11.10
2018-04-14T01:37:46.023Z,11.10
2018-04-14T01:40:14.417Z,11.10
2018-04-14T01:42:42.777Z,11.10
2018-04-14T01:45:11.162Z,11.10
2018-04-14T01:47:39.538Z,11.10
2018-04-14T01:50:07.895Z,11.10
2018-04-14T01:52:36.300Z,11.10
2018-04-14T01:55:04.672Z,11.00
2018-04-14T01:57:33.993Z,11.10
2018-04-14T02:00:02.355Z,11.00
2018-04-14T02:02:30.694Z,11.10
2018-04-14T02:04:59.847Z,11.00
2018-04-14T02:07:28.496Z,11.00
2018-04-14T02:09:56.911Z,11.00
2018-04-14T02:12:25.316Z,11.00
2018-04-14T02:14:53.690Z,11.00
2018-04-14T02:17:22.047Z,11.00
2018-04-14T02:19:50.408Z,11.00
2018-04-14T02:22:18.745Z,10.90
2018-04-14T02:24:47.902Z,10.90
2018-04-14T02:27:16.291Z,10.90
2018-04-14T02:29:44.712Z,10.90
2018-04-14T02:32:13.347Z,10.90
2018-04-14T02:34:41.718Z,10.90
2018-04-14T02:37:10.101Z,10.90
2018-04-14T02:39:38.459Z,10.90
2018-04-14T02:42:06.843Z,10.90
2018-04-14T02:44:35.295Z,10.90
2018-04-14T02:47:04.410Z,10.90
2018-04-14T02:49:32.922Z,10.90
2018-04-14T02:52:01.303Z,10.90
2018-04-14T02:54:29.674Z,10.90
2018-04-14T02:56:58.018Z,10.90
2018-04-14T02:59:27.162Z,10.90
2018-04-14T03:01:55.523Z,10.80
2018-04-14T03:04:23.905Z,10.90
2018-04-14T03:06:52.260Z,10.90
2018-04-14T03:09:21.387Z,10.90
2018-04-14T03:11:49.822Z,10.80
2018-04-14T03:14:18.277Z,10.90
2018-04-14T03:16:46.652Z,10.90
2018-04-14T03:19:15.002Z,10.80
2018-04-14T03:21:43.416Z,10.80
2018-04-14T03:24:11.750Z,10.90
2018-04-14T03:26:40.127Z,10.90
2018-04-14T03:29:08.474Z,10.90
2018-04-14T03:31:37.631Z,10.90
2018-04-14T03:34:05.984Z,10.90
2018-04-14T03:36:34.331Z,10.90
2018-04-14T03:39:03.453Z,11.00
2018-04-14T03:41:31.807Z,10.90
2018-04-14T03:44:00.930Z,10.90
2018-04-14T03:46:29.310Z,10.90
2018-04-14T03:48:57.666Z,10.90
2018-04-14T03:51:26.782Z,10.90
2018-04-14T03:53:55.167Z,10.90
2018-04-14T03:56:23.512Z,10.90
2018-04-14T03:58:52.633Z,10.90
2018-04-14T04:01:21.006Z,10.90
2018-04-14T04:03:50.141Z,10.80
2018-04-14T04:06:18.494Z,10.80
2018-04-14T04:08:46.867Z,10.90
2018-04-14T04:11:15.250Z,10.80
2018-04-14T04:13:44.295Z,10.90
2018-04-14T04:16:12.745Z,10.90
2018-04-14T04:18:53.048Z,10.90
2018-04-14T04:21:33.136Z,10.90
2018-04-14T04:24:13.421Z,10.90
2018-04-14T04:26:41.797Z,10.90
2018-04-14T04:29:10.213Z,10.90
2018-04-14T04:31:39.374Z,10.80
2018-04-14T04:34:07.782Z,10.80
2018-04-14T04:36:36.129Z,10.80
2018-04-14T04:39:04.521Z,10.80
2018-04-14T04:41:32.920Z,10.80
2018-04-14T04:44:01.300Z,10.80
2018-04-14T04:46:29.646Z,10.80
2018-04-14T04:48:58.012Z,10.90
2018-04-14T04:51:27.127Z,10.80
2018-04-14T04:53:55.469Z,10.80
2018-04-14T04:56:24.616Z,10.90
2018-04-14T04:58:52.940Z,10.80
2018-04-14T05:01:22.178Z,10.90
2018-04-14T05:03:50.553Z,10.90
2018-04-14T05:06:19.027Z,10.90
2018-04-14T05:08:47.402Z,10.90
2018-04-14T05:11:16.601Z,10.90
2018-04-14T05:13:44.993Z,10.90
2018-04-14T05:16:13.342Z,11.00
2018-04-14T05:18:42.464Z,10.90
2018-04-14T05:21:10.817Z,11.00
2018-04-14T05:23:39.956Z,11.00
2018-04-14T05:26:08.447Z,11.00
2018-04-14T05:28:36.789Z,11.00
2018-04-14T05:31:05.152Z,11.00
2018-04-14T05:33:34.297Z,11.10
2018-04-14T05:36:02.690Z,11.10
2018-04-14T05:38:31.044Z,11.10
2018-04-14T05:40:59.601Z,11.10
2018-04-14T05:43:28.109Z,11.10
2018-04-14T05:45:56.544Z,11.10
2018-04-14T05:48:24.892Z,11.10
2018-04-14T05:50:53.377Z,11.20
2018-04-14T05:53:21.700Z,11.20
2018-04-14T05:55:50.048Z,11.20
2018-04-14T05:58:18.506Z,11.20
2018-04-14T06:00:46.852Z,11.30
2018-04-14T06:03:15.270Z,11.30
2018-04-14T06:05:43.618Z,11.30
2018-04-14T06:08:12.180Z,11.40
2018-04-14T06:10:41.375Z,11.40
2018-04-14T06:13:10.663Z,11.40
2018-04-14T06:15:39.025Z,11.40
2018-04-14T06:18:07.376Z,11.50
2018-04-14T06:20:35.799Z,11.50
2018-04-14T06:23:04.667Z,11.50
2018-04-14T06:25:33.032Z,11.60
2018-04-14T06:28:01.406Z,11.60
2018-04-14T06:30:29.951Z,11.60
2018-04-14T06:32:58.383Z,11.60
2018-04-14T06:35:26.937Z,11.60
2018-04-14T06:37:55.325Z,11.60
2018-04-14T06:40:23.694Z,11.60
2018-04-14T06:42:52.102Z,11.60
2018-04-14T06:45:20.463Z,11.60
2018-04-14T06:47:48.882Z,11.60
2018-04-14T06:50:17.270Z,11.50
2018-04-14T06:52:45.621Z,11.50
2018-04-14T06:55:13.976Z,11.50
2018-04-14T06:57:42.349Z,11.40
2018-04-14T07:00:10.796Z,11.40
2018-04-14T07:02:39.963Z,11.40
2018-04-14T07:05:08.305Z,11.40
2018-04-14T07:07:36.673Z,11.50
2018-04-14T07:10:05.062Z,11.50
2018-04-14T07:12:33.443Z,11.50
2018-04-14T07:15:01.955Z,11.50
2018-04-14T07:17:30.300Z,11.60
2018-04-14T07:19:58.809Z,11.60
2018-04-14T07:22:27.191Z,11.60
2018-04-14T07:24:55.752Z,11.60
2018-04-14T07:27:24.154Z,11.60
2018-04-14T07:29:52.518Z,11.60
2018-04-14T07:32:20.960Z,11.60
2018-04-14T07:34:49.254Z,11.60
2018-04-14T07:37:17.664Z,11.70
2018-04-14T07:39:46.010Z,11.80
2018-04-14T07:42:14.426Z,12.00
2018-04-14T07:44:42.832Z,12.10
2018-04-14T07:47:11.221Z,12.30
2018-04-14T07:49:39.564Z,12.40
2018-04-14T07:52:07.933Z,12.50
2018-04-14T07:54:36.341Z,12.50
2018-04-14T07:57:04.822Z,12.50
2018-04-14T07:59:34.176Z,12.90
2018-04-14T08:02:02.584Z,12.80
2018-04-14T08:04:31.070Z,12.90
2018-04-14T08:06:59.424Z,12.80
2018-04-14T08:09:27.855Z,12.70
2018-04-14T08:11:56.209Z,12.80
2018-04-14T08:14:24.644Z,12.70
2018-04-14T08:16:53.796Z,12.80
2018-04-14T08:19:22.157Z,12.80
2018-04-14T08:21:50.530Z,13.00
2018-04-14T08:24:18.909Z,13.10
2018-04-14T08:26:47.301Z,13.20
2018-04-14T08:29:15.794Z,13.20
2018-04-14T08:31:44.165Z,13.20
2018-04-14T08:34:12.630Z,13.10
2018-04-14T08:36:41.072Z,13.10
2018-04-14T08:39:09.436Z,13.00
2018-04-14T08:41:37.792Z,12.90
2018-04-14T08:44:06.164Z,12.90
2018-04-14T08:46:34.524Z,12.80
2018-04-14T08:49:02.881Z,12.80
2018-04-14T08:51:31.296Z,12.80
2018-04-14T08:53:59.741Z,12.90
2018-04-14T08:56:28.878Z,13.30
2018-04-14T08:58:57.253Z,13.30
2018-04-14T09:01:25.602Z,13.30
2018-04-14T09:03:53.963Z,13.50
2018-04-14T09:06:23.208Z,13.40
2018-04-14T09:08:51.587Z,13.40
2018-04-14T09:11:19.998Z,13.40
2018-04-14T09:13:48.352Z,13.20
2018-04-14T09:16:16.751Z,13.10
2018-04-14T09:18:45.113Z,13.00
2018-04-14T09:21:13.499Z,12.90
2018-04-14T09:23:41.859Z,12.90
2018-04-14T09:26:10.427Z,13.00
2018-04-14T09:28:38.983Z,13.10
2018-04-14T09:31:07.331Z,13.20
2018-04-14T09:33:35.699Z,13.30
2018-04-14T09:36:04.060Z,13.50
2018-04-14T09:38:32.451Z,13.40
2018-04-14T09:41:00.823Z,13.50
2018-04-14T09:43:29.197Z,13.70
2018-04-14T09:45:57.562Z,14.00
2018-04-14T09:48:25.942Z,14.00
2018-04-14T09:50:54.292Z,14.00
2018-04-14T09:53:22.634Z,13.80
2018-04-14T09:55:51.130Z,13.70
2018-04-14T09:58:19.582Z,13.50
2018-04-14T10:00:53.681Z,13.60
2018-04-14T10:03:24.693Z,13.70
2018-04-14T10:05:53.238Z,13.60
2018-04-14T10:08:21.596Z,13.40
2018-04-14T10:10:50.093Z,13.50
2018-04-14T10:13:18.447Z,13.50
2018-04-14T10:15:46.930Z,13.30
2018-04-14T10:18:15.330Z,13.40
2018-04-14T10:20:44.502Z,13.60
2018-04-14T10:23:12.870Z,13.60
2018-04-14T10:25:41.318Z,13.60
2018-04-14T10:28:09.706Z,13.80
2018-04-14T10:30:38.049Z,13.70
2018-04-14T10:33:06.418Z,13.50
2018-04-14T10:35:34.794Z,13.50
2018-04-14T10:38:03.204Z,13.60
2018-04-14T10:40:31.673Z,13.80
2018-04-14T10:43:00.059Z,14.10
2018-04-14T10:45:28.425Z,14.30
2018-04-14T10:47:56.798Z,14.70
2018-04-14T10:50:25.157Z,15.10
2018-04-14T10:52:53.706Z,15.20
2018-04-14T10:55:22.167Z,15.20
2018-04-14T10:57:50.507Z,14.90
2018-04-14T11:00:18.877Z,15.20
2018-04-14T11:02:47.287Z,15.00
2018-04-14T11:05:15.989Z,15.10
2018-04-14T11:07:44.343Z,15.20
2018-04-14T11:10:12.707Z,15.20
2018-04-14T11:12:41.103Z,15.20
2018-04-14T11:15:09.450Z,15.20
2018-04-14T11:17:37.862Z,15.10
2018-04-14T11:20:06.386Z,14.80
2018-04-14T11:22:34.779Z,14.70
2018-04-14T11:25:03.170Z,14.30
2018-04-14T11:27:32.303Z,14.10
2018-04-14T11:30:00.812Z,14.10
2018-04-14T11:32:29.160Z,14.20
2018-04-14T11:34:57.535Z,14.30
2018-04-14T11:37:25.988Z,14.30
2018-04-14T11:39:55.145Z,14.60
2018-04-14T11:42:23.537Z,14.60
2018-04-14T11:44:52.192Z,14.90
2018-04-14T11:47:20.553Z,14.90
2018-04-14T11:49:48.952Z,15.00
2018-04-14T11:52:17.350Z,15.00
2018-04-14T11:54:45.684Z,15.20
2018-04-14T11:57:14.480Z,15.20
2018-04-14T11:59:42.836Z,15.10
2018-04-14T12:02:11.991Z,14.80
2018-04-14T12:04:40.335Z,14.80
2018-04-14T12:07:08.732Z,14.60
2018-04-14T12:09:37.090Z,15.30
2018-04-14T12:12:05.462Z,15.80
2018-04-14T12:14:34.084Z,15.80
2018-04-14T12:17:02.487Z,15.90
2018-04-14T12:19:30.946Z,15.90
2018-04-14T12:21:59.307Z,16.20
2018-04-14T12:24:27.715Z,16.20
2018-04-14T12:26:56.179Z,16.50
2018-04-14T12:29:24.637Z,16.80
2018-04-14T12:31:53.918Z,16.60
2018-04-14T12:34:23.189Z,16.90
2018-04-14T12:36:51.543Z,16.80
2018-04-14T12:39:20.005Z,17.60
2018-04-14T12:41:48.462Z,18.50
2018-04-14T12:44:17.580Z,17.90
2018-04-14T12:46:45.975Z,17.90
2018-04-14T12:49:14.338Z,17.90
2018-04-14T12:51:42.712Z,18.10
2018-04-14T12:54:11.070Z,17.90
2018-04-14T12:56:39.526Z,18.00
2018-04-14T12:59:07.898Z,18.90
2018-04-14T13:01:36.294Z,18.90
2018-04-14T13:04:05.432Z,19.20
2018-04-14T13:06:33.819Z,19.20
2018-04-14T13:09:02.379Z,19.70
2018-04-14T13:11:31.483Z,18.80
2018-04-14T13:13:59.871Z,18.80
2018-04-14T13:16:28.223Z,18.20
2018-04-14T13:18:57.453Z,17.70
2018-04-14T13:21:25.939Z,17.70
2018-04-14T13:23:54.313Z,17.90
2018-04-14T13:26:22.683Z,18.50
2018-04-14T13:28:51.123Z,19.50
2018-04-14T13:31:19.479Z,19.70
2018-04-14T13:33:47.871Z,19.80
2018-04-14T13:36:16.239Z,20.20
2018-04-14T13:38:44.757Z,20.00
2018-04-14T13:41:13.192Z,20.10
2018-04-14T13:43:41.534Z,20.80
2018-04-14T13:46:09.959Z,21.50
2018-04-14T13:48:38.370Z,21.30
2018-04-14T13:51:06.921Z,21.40
2018-04-14T13:53:35.266Z,21.20
2018-04-14T13:56:03.628Z,21.40
2018-04-14T13:58:32.036Z,21.70
2018-04-14T14:01:00.395Z,20.50
2018-04-14T14:03:28.845Z,19.20
2018-04-14T14:05:57.340Z,19.40
2018-04-14T14:08:25.781Z,19.00
2018-04-14T14:10:54.131Z,19.80
2018-04-14T14:13:22.517Z,19.80
2018-04-14T14:15:50.875Z,19.20
2018-04-14T14:18:19.295Z,19.80
2018-04-14T14:20:47.779Z,19.60
2018-04-14T14:23:16.157Z,19.60
2018-04-14T14:25:44.510Z,19.70
2018-04-14T14:28:12.856Z,19.30
2018-04-14T14:30:42.005Z,19.80
2018-04-14T14:33:10.357Z,19.80
2018-04-14T14:35:38.722Z,20.20
2018-04-14T14:38:07.085Z,20.40
2018-04-14T14:40:36.227Z,19.90
2018-04-14T14:43:04.579Z,19.90
2018-04-14T14:45:32.960Z,19.60
2018-04-14T14:48:02.082Z,19.20
2018-04-14T14:50:30.433Z,19.10
2018-04-14T14:52:58.841Z,19.80
2018-04-14T14:55:27.195Z,19.70
2018-04-14T14:57:55.606Z,20.10
2018-04-14T15:00:23.990Z,19.70
2018-04-14T15:02:52.354Z,19.20
2018-04-14T15:05:20.711Z,18.70
2018-04-14T15:07:49.244Z,19.20
2018-04-14T15:10:17.648Z,19.40
2018-04-14T15:12:45.992Z,18.60
2018-04-14T15:15:14.360Z,18.70
2018-04-14T15:17:42.750Z,19.20
2018-04-14T15:20:11.119Z,18.70
2018-04-14T15:22:39.486Z,19.20
2018-04-14T15:25:07.909Z,19.30
2018-04-14T15:27:36.360Z,18.70
2018-04-14T15:30:04.722Z,19.20
2018-04-14T15:32:33.082Z,19.10
2018-04-14T15:35:02.210Z,19.40
2018-04-14T15:37:30.592Z,19.30
2018-04-14T15:39:58.958Z,19.20
2018-04-14T15:42:27.310Z,19.50
2018-04-14T15:44:56.440Z,19.50
2018-04-14T15:47:24.799Z,19.50
2018-04-14T15:49:53.914Z,18.60
2018-04-14T15:52:22.312Z,18.60
2018-04-14T15:54:50.996Z,18.40
2018-04-14T15:57:19.376Z,18.40
2018-04-14T15:59:47.757Z,18.50
2018-04-14T16:02:16.143Z,19.00
2018-04-14T16:04:44.515Z,19.00
2018-04-14T16:07:12.895Z,19.00
2018-04-14T16:09:41.389Z,19.50
2018-04-14T16:12:09.736Z,19.90
2018-04-14T16:14:38.142Z,19.70
2018-04-14T16:17:06.513Z,19.80
2018-04-14T16:19:34.893Z,20.10
2018-04-14T16:22:03.253Z,20.40
2018-04-14T16:24:31.659Z,20.40
2018-04-14T16:27:00.075Z,20.60
2018-04-14T16:29:29.201Z,20.80
2018-04-14T16:31:58.771Z,20.80
2018-04-14T16:34:27.216Z,20.70
2018-04-14T16:36:55.687Z,20.80
2018-04-14T16:39:24.155Z,20.90
2018-04-14T16:41:52.616Z,20.90
2018-04-14T16:44:22.148Z,21.20
2018-04-14T16:46:50.524Z,21.10
2018-04-14T16:49:18.874Z,21.10
2018-04-14T16:51:47.997Z,20.40
2018-04-14T16:54:16.387Z,20.30
2018-04-14T16:56:44.788Z,20.60
2018-04-14T16:59:13.218Z,20.60
2018-04-14T17:01:42.453Z,20.70
2018-04-14T17:04:10.855Z,20.70
2018-04-14T17:06:39.272Z,20.50
2018-04-14T17:09:07.651Z,20.30
2018-04-14T17:11:37.619Z,19.50
2018-04-14T17:14:05.975Z,19.40
2018-04-14T17:16:34.381Z,19.30
2018-04-14T17:19:02.764Z,18.90
2018-04-14T17:21:31.136Z,17.70
2018-04-14T17:23:59.495Z,17.30
2018-04-14T17:26:27.867Z,17.10
2018-04-14T17:28:56.236Z,16.90
2018-04-14T17:31:25.355Z,16.00
2018-04-14T17:33:53.712Z,16.00
2018-04-14T17:36:22.180Z,15.70
2018-04-14T17:38:50.583Z,15.40
2018-04-14T17:41:18.948Z,15.20
2018-04-14T17:43:47.389Z,15.00
2018-04-14T17:46:16.640Z,14.60
2018-04-14T17:48:44.970Z,14.50
2018-04-14T17:51:13.343Z,14.10
2018-04-14T17:53:41.678Z,13.90
2018-04-14T17:56:10.039Z,13.80
2018-04-14T17:58:39.149Z,13.70
2018-04-14T18:01:07.537Z,13.70
2018-04-14T18:03:35.906Z,13.70
2018-04-14T18:06:04.293Z,13.60
2018-04-14T18:08:32.655Z,13.40
2018-04-14T18:11:01.091Z,13.40
2018-04-14T18:13:29.526Z,13.20
2018-04-14T18:15:58.630Z,13.10
2018-04-14T18:18:27.139Z,13.10
2018-04-14T18:20:55.517Z,13.10
2018-04-14T18:23:23.864Z,13.00
2018-04-14T18:25:52.226Z,13.00
2018-04-14T18:28:20.673Z,13.00
2018-04-14T18:30:49.146Z,13.00
2018-04-14T18:33:17.515Z,13.00
2018-04-14T18:35:45.899Z,12.90
2018-04-14T18:38:14.269Z,12.90
2018-04-14T18:40:42.750Z,12.90
2018-04-14T18:43:11.117Z,12.80
2018-04-14T18:45:39.504Z,12.80
2018-04-14T18:48:08.776Z,12.70
2018-04-14T18:50:37.917Z,12.70
2018-04-14T18:53:06.279Z,12.70
2018-04-14T18:55:34.669Z,12.60
2018-04-14T18:58:03.140Z,12.60
2018-04-14T19:00:31.532Z,12.50
2018-04-14T19:02:59.918Z,12.50
2018-04-14T19:05:28.269Z,12.50
2018-04-14T19:07:56.671Z,12.40
2018-04-14T19:10:25.042Z,12.40
2018-04-14T19:12:53.429Z,12.30
2018-04-14T19:15:21.779Z,12.30
2018-04-14T19:17:50.223Z,12.20
2018-04-14T19:20:19.201Z,12.20
2018-04-14T19:22:47.558Z,12.10
2018-04-14T19:25:16.018Z,12.10
2018-04-14T19:27:44.511Z,12.00
2018-04-14T19:30:12.873Z,12.00
2018-04-14T19:32:41.232Z,11.90
2018-04-14T19:35:10.355Z,12.00
2018-04-14T19:37:38.742Z,11.90
2018-04-14T19:40:07.134Z,11.90
2018-04-14T19:42:35.522Z,11.90
2018-04-14T19:45:03.903Z,11.90
2018-04-14T19:47:32.289Z,11.90
2018-04-14T19:50:00.852Z,11.80
2018-04-14T19:52:29.236Z,11.80
2018-04-14T19:54:57.629Z,11.80
2018-04-14T19:57:26.012Z,11.70
2018-04-14T19:59:54.400Z,11.60
2018-04-14T20:02:22.871Z,11.50
2018-04-14T20:04:51.339Z,11.50
2018-04-14T20:07:19.696Z,11.50
2018-04-14T20:09:48.070Z,11.50
2018-04-14T20:12:16.440Z,11.50
2018-04-14T20:14:45.572Z,11.50
2018-04-14T20:17:13.930Z,11.50
2018-04-14T20:19:42.326Z,11.50
2018-04-14T20:22:10.699Z,11.50
2018-04-14T20:24:39.059Z,11.50
2018-04-14T20:27:08.468Z,11.40
2018-04-14T20:29:36.840Z,11.40
2018-04-14T20:32:05.288Z,11.40
2018-04-14T20:34:33.996Z,11.30
2018-04-14T20:37:03.618Z,11.30
2018-04-14T20:39:32.025Z,11.30
2018-04-14T20:42:00.856Z,11.30
2018-04-14T20:44:29.278Z,11.30
2018-04-14T20:46:57.841Z,11.30
2018-04-14T20:49:27.780Z,11.30
2018-04-14T20:51:56.118Z,11.30
2018-04-14T20:54:24.495Z,11.30
2018-04-14T20:56:53.051Z,11.30
2018-04-14T20:59:21.635Z,11.30
2018-04-14T21:01:50.024Z,11.20
2018-04-14T21:04:18.506Z,11.20
2018-04-14T21:06:47.231Z,11.20
2018-04-14T21:09:16.363Z,11.20
2018-04-14T21:11:44.973Z,11.20
2018-04-14T21:14:14.128Z,11.20
2018-04-14T21:16:42.858Z,11.10
2018-04-14T21:19:11.236Z,11.10
2018-04-14T21:21:40.029Z,11.00
2018-04-14T21:24:08.404Z,11.00
2018-04-14T21:26:36.879Z,11.00
2018-04-14T21:29:05.495Z,11.00
2018-04-14T21:31:34.196Z,11.00
2018-04-14T21:34:02.964Z,11.00
2018-04-14T21:36:31.316Z,10.90
2018-04-14T21:38:59.691Z,10.90
2018-04-14T21:41:28.042Z,10.90
2018-04-14T21:43:56.614Z,10.90
2018-04-14T21:46:25.855Z,10.90
2018-04-14T21:48:55.238Z,10.80
2018-04-14T21:51:23.605Z,10.80
2018-04-14T21:53:52.059Z,10.80
2018-04-14T21:56:20.470Z,10.80
2018-04-14T21:58:49.180Z,10.80
2018-04-14T22:01:17.566Z,10.80
2018-04-14T22:03:45.940Z,10.70
2018-04-14T22:06:14.327Z,10.70
2018-04-14T22:08:42.749Z,10.70
2018-04-14T22:11:11.891Z,10.70
2018-04-14T22:13:40.375Z,10.60
2018-04-14T22:16:08.749Z,10.60
2018-04-14T22:18:37.202Z,10.60
2018-04-14T22:21:05.692Z,10.60
2018-04-14T22:23:34.073Z,10.70
2018-04-14T22:26:02.423Z,10.70
2018-04-14T22:28:31.569Z,10.70
2018-04-14T22:30:59.957Z,10.60
2018-04-14T22:33:28.327Z,10.70
2018-04-14T22:35:56.706Z,10.70
2018-04-14T22:38:25.356Z,10.70
2018-04-14T22:40:53.705Z,10.70
2018-04-14T22:43:22.455Z,10.70
2018-04-14T22:45:50.829Z,10.70
2018-04-14T22:48:19.265Z,10.70
2018-04-14T22:50:47.719Z,10.70
2018-04-14T22:53:16.133Z,10.70
2018-04-14T22:55:44.984Z,10.70
2018-04-14T22:58:13.371Z,10.70
2018-04-14T23:00:41.788Z,10.70
2018-04-14T23:03:11.031Z,10.70
2018-04-14T23:05:39.424Z,10.60
2018-04-14T23:08:07.985Z,10.60
2018-04-14T23:10:36.563Z,10.60
2018-04-14T23:13:05.033Z,10.60
2018-04-14T23:15:33.966Z,10.50
2018-04-14T23:18:02.337Z,10.50
2018-04-14T23:20:30.760Z,10.50
2018-04-14T23:22:59.242Z,10.50
2018-04-14T23:25:28.492Z,10.50
2018-04-14T23:27:56.856Z,10.50
2018-04-14T23:30:25.253Z,10.50
2018-04-14T23:32:53.716Z,10.50
2018-04-14T23:35:22.283Z,10.50
2018-04-14T23:37:50.690Z,10.50
2018-04-14T23:40:19.088Z,10.50
2018-04-14T23:42:47.450Z,10.50
2018-04-14T23:45:15.812Z,10.50
2018-04-14T23:47:44.185Z,10.50
2018-04-14T23:50:12.547Z,10.40
2018-04-14T23:52:41.095Z,10.40
2018-04-14T23:55:09.446Z,10.30
2018-04-14T23:57:37.796Z,10.30
